Time;durP1;ratioP1;P1;durP2;ratioP2;P2;SDS_P1;SDS_P2;PMS_P1;PMS_P2;Temp;Humidity;BMP_temperature;BMP_pressure;BME280_temperature;BME280_humidity;BME280_pressure;Samples;Min_cycle;Max_cycle;Signal;HPM_P1;HPM_P2
2023/07/22 00:01:48;;;;;;;;;;;;;;;24.82;33.91;99732.56;6154928;23;19984;-68
2023/07/22 00:04:13;;;;;;;;;;;;;;;24.81;33.96;99730.13;6127105;23;19918;-68
2023/07/22 00:06:39;;;;;;;;;;;;;;;24.81;33.86;99728.19;6153363;23;19912;-68
2023/07/22 00:09:04;;;;;;;;;;;;;;;24.81;33.81;99732.88;6151626;23;19908;-68
2023/07/22 00:11:30;;;;;;;;;;;;;;;24.81;33.90;99730.13;6153266;23;20344;-68
2023/07/22 00:13:55;;;;;;;;;;;;;;;24.82;33.97;99732.56;6153057;23;19908;-68
2023/07/22 00:16:20;;;;;;;;;;;;;;;24.87;34.20;99732.47;6126400;23;19909;-68
2023/07/22 00:18:47;;;;;;;;;;;;;;;24.89;34.23;99732.16;6152523;23;19948;-68
2023/07/22 00:21:12;;;;;;;;;;;;;;;24.93;34.07;99728.47;6154861;23;19908;-68
2023/07/22 00:23:38;;;;;;;;;;;;;;;24.96;33.95;99728.97;6152632;23;20491;-68
2023/07/22 00:26:03;;;;;;;;;;;;;;;25.01;33.68;99732.44;6152778;23;19920;-68
2023/07/22 00:28:29;;;;;;;;;;;;;;;25.03;34.09;99729.38;6150385;23;20267;-68
2023/07/22 00:30:54;;;;;;;;;;;;;;;25.05;33.99;99727.13;6152354;23;20234;-68
2023/07/22 00:33:19;;;;;;;;;;;;;;;25.05;33.87;99729.88;6153932;23;20291;-70
2023/07/22 00:35:50;;;;;;;;;;;;;;;25.04;33.95;99731.81;6124971;23;19909;-68
2023/07/22 00:38:15;;;;;;;;;;;;;;;25.07;34.24;99720.22;6154039;23;19955;-68
2023/07/22 00:40:40;;;;;;;;;;;;;;;25.10;33.87;99722.34;6153016;23;19962;-68
2023/07/22 00:43:07;;;;;;;;;;;;;;;25.15;33.74;99723.34;6152608;23;19913;-68
2023/07/22 00:45:32;;;;;;;;;;;;;;;25.14;33.68;99728.03;6154464;23;19924;-69
2023/07/22 00:47:57;;;;;;;;;;;;;;;25.10;33.82;99727.03;6151447;23;19909;-68
2023/07/22 00:50:24;;;;;;;;;;;;;;;25.12;33.68;99728.34;6127006;23;19916;-68
2023/07/22 00:52:49;;;;;;;;;;;;;;;25.11;33.84;99731.38;6153354;23;19915;-68
2023/07/22 00:55:14;;;;;;;;;;;;;;;25.07;34.27;99722.16;6151838;23;19983;-68
2023/07/22 00:57:40;;;;;;;;;;;;;;;25.09;33.62;99719.91;6153856;23;19909;-68
2023/07/22 01:00:05;;;;;;;;;;;;;;;25.10;33.84;99724.28;6151970;23;19936;-68
2023/07/22 01:02:31;;;;;;;;;;;;;;;25.12;33.62;99727.53;6152449;23;20277;-68
2023/07/22 01:04:56;;;;;;;;;;;;;;;25.11;33.92;99717.66;6127861;23;20020;-68
2023/07/22 01:07:21;;;;;;;;;;;;;;;25.09;34.35;99717.16;6150190;23;19909;-68
2023/07/22 01:09:47;;;;;;;;;;;;;;;25.09;34.05;99717.16;6154473;23;19915;-68
2023/07/22 01:12:13;;;;;;;;;;;;;;;25.08;34.31;99721.03;6126221;23;20246;-68
2023/07/22 01:14:42;;;;;;;;;;;;;;;25.04;34.37;99720.84;6154558;23;19987;-68
2023/07/22 01:17:08;;;;;;;;;;;;;;;25.04;34.29;99718.09;6127466;23;20343;-68
2023/07/22 01:19:33;;;;;;;;;;;;;;;25.08;34.32;99716.34;6152449;23;19940;-69
2023/07/22 01:22:03;;;;;;;;;;;;;;;25.07;34.65;99719.41;6154304;23;20215;-69
2023/07/22 01:24:29;;;;;;;;;;;;;;;25.08;34.53;99721.03;6150326;23;19909;-69
2023/07/22 01:26:54;;;;;;;;;;;;;;;25.10;34.40;99718.78;6152253;23;20400;-68
2023/07/22 01:29:21;;;;;;;;;;;;;;;25.12;34.36;99716.53;6152956;23;19909;-68
2023/07/22 01:31:47;;;;;;;;;;;;;;;25.14;34.46;99708.78;6150241;23;19908;-68
2023/07/22 01:34:12;;;;;;;;;;;;;;;25.19;34.21;99713.38;6153376;23;20039;-68
2023/07/22 01:36:38;;;;;;;;;;;;;;;25.22;34.42;99710.00;6152573;23;19912;-68
2023/07/22 01:39:06;;;;;;;;;;;;;;;25.24;34.24;99708.59;6153633;23;19918;-68
2023/07/22 01:41:31;;;;;;;;;;;;;;;25.23;34.21;99704.22;6153134;23;19908;-68
2023/07/22 01:43:56;;;;;;;;;;;;;;;25.27;34.68;99704.41;6151259;23;20318;-68
2023/07/22 01:46:22;;;;;;;;;;;;;;;25.30;34.64;99706.56;6152527;23;19912;-68
2023/07/22 01:48:47;;;;;;;;;;;;;;;25.29;34.12;99705.72;6151091;23;20807;-68
2023/07/22 01:51:12;;;;;;;;;;;;;;;25.28;34.33;99698.63;6152647;23;19919;-68
2023/07/22 01:53:38;;;;;;;;;;;;;;;25.28;34.92;99703.31;6153105;23;19988;-68
2023/07/22 01:56:04;;;;;;;;;;;;;;;25.27;34.31;99701.66;6151142;23;20233;-68
2023/07/22 01:58:32;;;;;;;;;;;;;;;25.30;34.46;99699.13;6154552;23;20070;-68
2023/07/22 02:00:57;;;;;;;;;;;;;;;25.29;34.59;99708.47;6149333;23;19951;-68
2023/07/22 02:03:23;;;;;;;;;;;;;;;25.28;34.58;99698.63;6152315;23;19921;-68
2023/07/22 02:05:48;;;;;;;;;;;;;;;25.28;34.72;99701.38;6153145;23;19913;-68
2023/07/22 02:08:13;;;;;;;;;;;;;;;25.33;34.06;99705.09;6150480;23;19955;-68
2023/07/22 02:10:39;;;;;;;;;;;;;;;25.37;34.39;99700.59;6152506;23;20031;-68
2023/07/22 02:13:04;;;;;;;;;;;;;;;25.43;34.36;99702.13;6151903;23;19963;-68
2023/07/22 02:15:30;;;;;;;;;;;;;;;25.41;34.47;99699.69;6152665;23;20062;-68
2023/07/22 02:17:56;;;;;;;;;;;;;;;25.42;34.45;99701.28;6154013;23;19916;-68
2023/07/22 02:20:21;;;;;;;;;;;;;;;25.44;34.45;99707.28;6152926;23;19915;-69
2023/07/22 02:22:47;;;;;;;;;;;;;;;25.47;34.51;99706.69;6153124;23;19963;-69
2023/07/22 02:25:14;;;;;;;;;;;;;;;25.46;34.38;99713.31;6151452;23;20074;-68
2023/07/22 02:27:40;;;;;;;;;;;;;;;25.43;34.89;99702.94;6151181;23;20323;-68
2023/07/22 02:30:09;;;;;;;;;;;;;;;25.48;34.64;99704.72;6153232;23;19912;-68
2023/07/22 02:32:35;;;;;;;;;;;;;;;25.47;34.39;99706.69;6100069;23;19924;-68
2023/07/22 02:35:00;;;;;;;;;;;;;;;25.46;34.49;99710.56;6149991;23;19908;-68
2023/07/22 02:37:26;;;;;;;;;;;;;;;25.43;34.50;99707.63;6152973;23;19991;-68
2023/07/22 02:39:51;;;;;;;;;;;;;;;25.43;34.70;99708.44;6125596;23;19924;-68
2023/07/22 02:42:16;;;;;;;;;;;;;;;25.45;34.55;99702.63;6126704;23;19909;-68
2023/07/22 02:44:42;;;;;;;;;;;;;;;25.46;34.50;99710.56;6150342;23;19917;-68
2023/07/22 02:47:07;;;;;;;;;;;;;;;25.47;34.64;99705.88;6152945;23;20330;-68
2023/07/22 02:49:33;;;;;;;;;;;;;;;25.50;34.33;99706.06;6151142;23;20047;-68
2023/07/22 02:51:58;;;;;;;;;;;;;;;25.52;34.44;99711.25;6151598;23;19909;-68
2023/07/22 02:54:23;;;;;;;;;;;;;;;25.49;34.56;99709.13;6152327;23;19908;-68
2023/07/22 02:56:49;;;;;;;;;;;;;;;25.49;34.43;99709.94;6150903;23;19909;-68
2023/07/22 02:59:14;;;;;;;;;;;;;;;25.51;34.54;99715.13;6153694;23;19948;-68
2023/07/22 03:01:39;;;;;;;;;;;;;;;25.53;34.53;99712.88;6152797;23;19948;-68
2023/07/22 03:04:05;;;;;;;;;;;;;;;25.49;34.43;99706.38;6150677;23;19909;-68
2023/07/22 03:06:31;;;;;;;;;;;;;;;25.52;34.60;99713.16;6152826;23;19912;-68
2023/07/22 03:08:57;;;;;;;;;;;;;;;25.47;34.22;99709.44;6152208;23;19962;-68
2023/07/22 03:11:25;;;;;;;;;;;;;;;25.50;34.62;99707.97;6151459;23;20335;-68
2023/07/22 03:13:50;;;;;;;;;;;;;;;25.53;34.31;99715.63;6149687;23;19923;-68
2023/07/22 03:16:15;;;;;;;;;;;;;;;25.55;34.20;99713.34;6151041;23;19909;-68
2023/07/22 03:18:42;;;;;;;;;;;;;;;25.52;34.14;99707.66;6150326;23;19915;-67
2023/07/22 03:21:08;;;;;;;;;;;;;;;25.47;34.18;99708.63;6148115;23;20285;-68
2023/07/22 03:23:34;;;;;;;;;;;;;;;25.40;34.58;99711.78;6151031;23;19908;-67
2023/07/22 03:26:00;;;;;;;;;;;;;;;25.42;34.64;99701.28;6150490;23;19916;-68
2023/07/22 03:28:25;;;;;;;;;;;;;;;25.45;34.89;99700.69;6151925;23;19908;-68
2023/07/22 03:30:51;;;;;;;;;;;;;;;25.47;34.47;99706.69;6152790;23;19908;-68
2023/07/22 03:33:16;;;;;;;;;;;;;;;25.48;34.17;99704.72;6151044;23;19915;-68
2023/07/22 03:35:41;;;;;;;;;;;;;;;25.50;34.67;99708.81;6151421;23;19962;-68
2023/07/22 03:38:07;;;;;;;;;;;;;;;25.48;34.62;99705.56;6153318;23;19909;-68
2023/07/22 03:40:33;;;;;;;;;;;;;;;25.52;34.45;99715.91;6150863;23;19909;-68
2023/07/22 03:42:58;;;;;;;;;;;;;;;25.56;34.37;99717.75;6153504;23;19997;-68
2023/07/22 03:45:23;;;;;;;;;;;;;;;25.55;34.96;99707.84;6151319;23;19917;-68
2023/07/22 03:47:52;;;;;;;;;;;;;;;25.56;34.76;99712.25;6151815;23;19999;-68
2023/07/22 03:50:18;;;;;;;;;;;;;;;25.60;34.25;99707.75;6154306;23;19915;-69
2023/07/22 03:52:43;;;;;;;;;;;;;;;25.60;34.45;99712.44;6153970;23;19912;-68
2023/07/22 03:55:08;;;;;;;;;;;;;;;25.57;34.36;99713.84;6153991;23;19912;-68
2023/07/22 03:57:34;;;;;;;;;;;;;;;25.55;34.36;99713.34;6151671;23;19913;-68
2023/07/22 04:00:00;;;;;;;;;;;;;;;25.54;34.42;99711.75;6155314;23;19991;-68
2023/07/22 04:02:25;;;;;;;;;;;;;;;25.53;34.64;99712.06;6153358;23;19983;-68
2023/07/22 04:04:54;;;;;;;;;;;;;;;25.57;34.74;99715.81;6152602;23;19913;-68
2023/07/22 04:07:20;;;;;;;;;;;;;;;25.56;34.26;99708.69;6152987;23;19915;-68
2023/07/22 04:09:45;;;;;;;;;;;;;;;25.53;34.28;99712.88;6152331;23;19908;-68
2023/07/22 04:12:11;;;;;;;;;;;;;;;25.49;35.00;99709.13;6128927;23;19936;-68
2023/07/22 04:14:36;;;;;;;;;;;;;;;25.50;34.57;99717.06;6154778;23;19908;-68
2023/07/22 04:17:04;;;;;;;;;;;;;;;25.54;34.33;99714.50;6152168;23;19912;-67
2023/07/22 04:19:29;;;;;;;;;;;;;;;25.55;34.49;99704.31;6152720;23;19964;-68
2023/07/22 04:21:54;;;;;;;;;;;;;;;25.52;34.62;99708.50;6151064;23;19947;-68
2023/07/22 04:24:22;;;;;;;;;;;;;;;25.54;34.41;99709.00;6153776;23;19954;-68
2023/07/22 04:26:47;;;;;;;;;;;;;;;25.50;34.82;99710.72;6154674;23;20330;-68
2023/07/22 04:29:12;;;;;;;;;;;;;;;25.50;34.42;99710.72;6150430;23;19919;-68
2023/07/22 04:31:38;;;;;;;;;;;;;;;25.49;34.76;99704.44;6154941;23;19908;-68
2023/07/22 04:34:03;;;;;;;;;;;;;;;25.51;34.73;99709.63;6150850;23;20361;-68
2023/07/22 04:36:28;;;;;;;;;;;;;;;25.48;34.85;99712.97;6154987;23;19909;-68
2023/07/22 04:38:54;;;;;;;;;;;;;;;25.50;34.88;99710.72;6151375;23;19909;-68
2023/07/22 04:41:19;;;;;;;;;;;;;;;25.50;34.96;99705.22;6149433;23;20476;-68
2023/07/22 04:43:44;;;;;;;;;;;;;;;25.57;34.49;99707.56;6155110;23;19908;-68
2023/07/22 04:46:10;;;;;;;;;;;;;;;25.58;34.54;99707.25;6152330;23;19917;-67
2023/07/22 04:48:36;;;;;;;;;;;;;;;25.58;34.73;99707.25;6152405;23;19960;-67
2023/07/22 04:51:03;;;;;;;;;;;;;;;25.62;34.56;99711.00;6154626;23;19913;-67
2023/07/22 04:53:28;;;;;;;;;;;;;;;25.61;34.42;99712.13;6152830;23;19915;-67
2023/07/22 04:55:55;;;;;;;;;;;;;;;25.64;34.56;99705.97;6125766;23;20238;-68
2023/07/22 04:58:20;;;;;;;;;;;;;;;25.71;34.42;99699.25;6153142;23;20242;-68
2023/07/22 05:00:45;;;;;;;;;;;;;;;25.72;34.30;99706.34;6149677;23;19909;-69
2023/07/22 05:03:11;;;;;;;;;;;;;;;25.71;34.39;99700.06;6153758;23;19921;-69
2023/07/22 05:05:36;;;;;;;;;;;;;;;25.68;34.32;99706.97;6152801;23;20323;-68
2023/07/22 05:08:01;;;;;;;;;;;;;;;25.75;34.59;99709.28;6151782;23;20021;-68
2023/07/22 05:10:28;;;;;;;;;;;;;;;25.74;34.46;99706.84;6153508;23;19909;-68
2023/07/22 05:12:54;;;;;;;;;;;;;;;25.72;34.57;99711.84;6153049;23;19959;-68
2023/07/22 05:15:20;;;;;;;;;;;;;;;25.69;34.80;99711.38;6127527;23;19912;-68
2023/07/22 05:17:45;;;;;;;;;;;;;;;25.73;34.55;99713.50;6152606;23;19916;-68
2023/07/22 05:20:11;;;;;;;;;;;;;;;25.67;34.63;99715.56;6154052;23;19912;-68
2023/07/22 05:22:37;;;;;;;;;;;;;;;25.69;34.82;99713.31;6154004;23;19908;-68
2023/07/22 05:25:04;;;;;;;;;;;;;;;25.66;34.62;99714.72;6151230;23;19967;-68
2023/07/22 05:27:29;;;;;;;;;;;;;;;25.69;34.64;99714.13;6153380;23;19959;-68
2023/07/22 05:29:55;;;;;;;;;;;;;;;25.69;34.72;99716.06;6152029;23;20273;-68
2023/07/22 05:32:20;;;;;;;;;;;;;;;25.67;34.55;99715.56;6152796;23;19915;-67
2023/07/22 05:34:45;;;;;;;;;;;;;;;25.67;34.66;99723.81;6152511;23;20358;-68
2023/07/22 05:37:20;;;;;;;;;;;;;;;25.68;34.87;99719.91;6147943;23;19916;-68
2023/07/22 05:39:46;;;;;;;;;;;;;;;25.70;34.47;99709.41;6152149;23;19916;-68
2023/07/22 05:42:11;;;;;;;;;;;;;;;25.72;34.47;99720.13;6151754;23;19920;-67
2023/07/22 05:44:36;;;;;;;;;;;;;;;25.69;34.66;99729.81;6126385;23;20310;-67
2023/07/22 05:47:01;;;;;;;;;;;;;;;25.68;34.84;99733.69;6152877;23;19995;-68
2023/07/22 05:49:27;;;;;;;;;;;;;;;25.71;34.85;99724.81;6150332;23;19915;-67
2023/07/22 05:51:54;;;;;;;;;;;;;;;25.71;34.59;99733.06;6152318;23;20063;-69
2023/07/22 05:54:19;;;;;;;;;;;;;;;25.81;34.54;99727.28;6151424;23;19909;-68
2023/07/22 05:56:44;;;;;;;;;;;;;;;26.02;34.41;99732.28;6153967;23;19920;-68
2023/07/22 05:59:10;;;;;;;;;;;;;;;26.14;34.48;99728.97;6151658;23;19912;-67
2023/07/22 06:01:35;;;;;;;;;;;;;;;26.15;34.18;99733.34;6149684;23;19967;-67
2023/07/22 06:04:00;;;;;;;;;;;;;;;26.19;34.20;99734.34;6150444;23;19913;-68
2023/07/22 06:06:27;;;;;;;;;;;;;;;26.25;33.97;99741.34;6151755;23;19944;-67
2023/07/22 06:08:52;;;;;;;;;;;;;;;26.30;33.90;99732.13;6154089;23;19908;-67
2023/07/22 06:11:18;;;;;;;;;;;;;;;26.34;33.76;99739.44;6152329;23;19915;-67
2023/07/22 06:13:43;;;;;;;;;;;;;;;26.32;33.79;99736.19;6151483;23;19920;-68
2023/07/22 06:16:08;;;;;;;;;;;;;;;26.27;33.11;99734.38;6152058;23;19931;-68
2023/07/22 06:18:34;;;;;;;;;;;;;;;26.21;33.16;99732.09;6152149;23;19948;-67
2023/07/22 06:20:59;;;;;;;;;;;;;;;26.19;32.70;99742.63;6151708;23;19909;-68
2023/07/22 06:23:30;;;;;;;;;;;;;;;26.20;33.28;99735.97;6151676;23;19987;-67
2023/07/22 06:25:55;;;;;;;;;;;;;;;26.19;33.31;99740.66;6152425;23;20311;-68
2023/07/22 06:28:20;;;;;;;;;;;;;;;26.15;33.41;99738.84;6126516;23;19916;-67
2023/07/22 06:30:46;;;;;;;;;;;;;;;26.13;33.22;99741.09;6151275;23;19932;-67
2023/07/22 06:33:11;;;;;;;;;;;;;;;26.20;32.69;99744.22;6152612;23;20227;-67
2023/07/22 06:35:36;;;;;;;;;;;;;;;26.22;32.67;99744.72;6125477;23;19947;-68
2023/07/22 06:38:01;;;;;;;;;;;;;;;26.21;32.88;99746.66;6150396;23;19912;-67
2023/07/22 06:40:27;;;;;;;;;;;;;;;26.24;32.92;99746.03;6151788;23;19908;-67
2023/07/22 06:42:52;;;;;;;;;;;;;;;26.27;32.72;99750.88;6149773;23;19913;-68
2023/07/22 06:45:17;;;;;;;;;;;;;;;26.27;32.94;99745.38;6153180;23;20342;-68
2023/07/22 06:47:43;;;;;;;;;;;;;;;26.31;32.88;99755.78;6125912;23;19921;-68
2023/07/22 06:50:10;;;;;;;;;;;;;;;26.26;33.15;99749.28;6151848;23;19908;-68
2023/07/22 06:52:35;;;;;;;;;;;;;;;26.26;33.30;99753.94;6152936;23;19968;-68
2023/07/22 06:55:01;;;;;;;;;;;;;;;26.26;33.25;99752.03;6152154;23;20234;-68
2023/07/22 06:57:26;;;;;;;;;;;;;;;26.26;33.11;99757.53;6153110;23;20286;-68
2023/07/22 06:59:55;;;;;;;;;;;;;;;26.25;33.09;99753.16;6153240;23;19909;-68
2023/07/22 07:02:21;;;;;;;;;;;;;;;26.15;33.58;99755.34;6149232;23;19963;-68
2023/07/22 07:04:46;;;;;;;;;;;;;;;26.01;33.11;99767.25;6126927;23;19955;-68
2023/07/22 07:07:12;;;;;;;;;;;;;;;25.96;33.40;99770.13;6152818;23;19953;-67
2023/07/22 07:09:38;;;;;;;;;;;;;;;25.87;33.70;99764.56;6101895;23;19987;-67
2023/07/22 07:12:03;;;;;;;;;;;;;;;25.90;33.68;99763.13;6154468;23;19916;-67
2023/07/22 07:14:28;;;;;;;;;;;;;;;25.96;33.89;99761.06;6152268;23;19916;-67
2023/07/22 07:16:54;;;;;;;;;;;;;;;25.99;33.43;99758.50;6151641;23;19912;-68
2023/07/22 07:19:19;;;;;;;;;;;;;;;26.05;33.30;99771.00;6153147;23;19963;-68
2023/07/22 07:21:44;;;;;;;;;;;;;;;26.10;33.48;99763.78;6151172;23;19912;-68
2023/07/22 07:24:09;;;;;;;;;;;;;;;26.16;33.66;99759.75;6153902;23;19959;-68
2023/07/22 07:26:35;;;;;;;;;;;;;;;26.20;33.61;99758.78;6152787;23;19995;-68
2023/07/22 07:29:00;;;;;;;;;;;;;;;26.26;33.98;99759.47;6152585;23;19959;-68
2023/07/22 07:31:25;;;;;;;;;;;;;;;26.36;34.29;99759.19;6153978;23;19912;-68
2023/07/22 07:33:51;;;;;;;;;;;;;;;26.44;33.82;99763.13;6150546;23;19969;-68
2023/07/22 07:36:16;;;;;;;;;;;;;;;26.53;33.48;99752.94;6154027;23;19943;-68
2023/07/22 07:38:42;;;;;;;;;;;;;;;26.61;34.05;99762.41;6153291;23;19908;-68
2023/07/22 07:41:11;;;;;;;;;;;;;;;26.75;33.73;99756.78;6153553;23;19920;-67
2023/07/22 07:43:40;;;;;;;;;;;;;;;26.95;33.01;99756.19;6154196;23;19963;-68
2023/07/22 07:46:17;;;;;;;;;;;;;;;27.07;33.12;99752.81;6151814;23;19916;-67
2023/07/22 07:48:42;;;;;;;;;;;;;;;27.23;32.93;99745.69;6149667;23;19987;-68
2023/07/22 07:51:07;;;;;;;;;;;;;;;27.34;32.84;99753.66;6151320;23;20251;-67
2023/07/22 07:53:33;;;;;;;;;;;;;;;27.43;32.73;99751.72;6155230;23;19988;-67
2023/07/22 07:55:58;;;;;;;;;;;;;;;27.48;32.66;99745.25;6154568;23;19987;-68
2023/07/22 07:58:23;;;;;;;;;;;;;;;27.60;32.44;99737.94;6151236;23;19913;-67
2023/07/22 08:00:49;;;;;;;;;;;;;;;27.71;33.46;99746.69;6155256;23;19915;-68
2023/07/22 08:03:14;;;;;;;;;;;;;;;27.80;32.53;99749.44;6102558;23;20278;-68
2023/07/22 08:05:39;;;;;;;;;;;;;;;27.84;31.26;99744.91;6152495;23;19912;-68
2023/07/22 08:08:04;;;;;;;;;;;;;;;27.91;31.09;99742.47;6154334;23;20233;-67
2023/07/22 08:10:30;;;;;;;;;;;;;;;27.96;31.23;99745.03;6152123;23;19983;-67
2023/07/22 08:12:55;;;;;;;;;;;;;;;28.06;31.10;99748.59;6155394;23;19936;-66
2023/07/22 08:15:21;;;;;;;;;;;;;;;28.15;31.12;99750.19;6153603;23;19912;-65
2023/07/22 08:17:46;;;;;;;;;;;;;;;28.26;31.30;99747.09;6100597;23;19935;-65
2023/07/22 08:20:11;;;;;;;;;;;;;;;28.37;30.47;99754.66;6126999;23;20295;-66
2023/07/22 08:22:37;;;;;;;;;;;;;;;28.51;30.70;99757.22;6151931;23;20047;-66
2023/07/22 08:25:02;;;;;;;;;;;;;;;28.66;30.59;99757.81;6154409;23;19945;-66
2023/07/22 08:27:28;;;;;;;;;;;;;;;28.76;30.47;99762.97;6152551;23;20203;-66
2023/07/22 08:29:53;;;;;;;;;;;;;;;28.87;29.97;99750.41;6152354;23;19959;-66
2023/07/22 08:32:18;;;;;;;;;;;;;;;29.00;28.83;99762.34;6154595;23;19943;-65
2023/07/22 08:34:44;;;;;;;;;;;;;;;29.08;29.29;99766.22;6153428;23;19944;-66
2023/07/22 08:37:09;;;;;;;;;;;;;;;29.12;30.06;99761.63;6153792;23;19909;-65
2023/07/22 08:39:34;;;;;;;;;;;;;;;29.17;28.91;99760.66;6152892;23;19968;-65
2023/07/22 08:42:03;;;;;;;;;;;;;;;29.20;28.77;99757.19;6155331;23;19936;-65
2023/07/22 08:44:34;;;;;;;;;;;;;;;29.24;29.21;99760.94;6154319;23;19909;-65
2023/07/22 08:46:59;;;;;;;;;;;;;;;29.31;29.07;99764.78;6151933;23;19967;-68
2023/07/22 08:49:26;;;;;;;;;;;;;;;29.34;27.95;99755.00;6154838;23;19912;-67
2023/07/22 08:51:52;;;;;;;;;;;;;;;29.42;28.78;99754.13;6152473;23;19940;-66
2023/07/22 08:54:17;;;;;;;;;;;;;;;29.52;28.36;99755.66;6128840;23;19965;-68
2023/07/22 08:56:43;;;;;;;;;;;;;;;29.62;28.43;99751.66;6154482;23;19917;-66
2023/07/22 08:59:10;;;;;;;;;;;;;;;29.74;28.64;99754.53;6152775;23;19909;-66
2023/07/22 09:01:37;;;;;;;;;;;;;;;29.85;28.32;99744.63;6152806;23;19920;-67
2023/07/22 09:04:02;;;;;;;;;;;;;;;29.95;29.29;99748.94;6151501;23;20004;-67
2023/07/22 09:06:28;;;;;;;;;;;;;;;30.07;28.60;99759.22;6154477;23;20154;-66
2023/07/22 09:08:54;;;;;;;;;;;;;;;30.20;28.99;99752.59;6126731;23;19912;-68
2023/07/22 09:11:21;;;;;;;;;;;;;;;30.33;28.11;99760.94;6149754;23;19930;-66
2023/07/22 09:13:47;;;;;;;;;;;;;;;30.43;28.35;99763.25;6152947;23;20374;-68
2023/07/22 09:16:14;;;;;;;;;;;;;;;30.51;28.14;99755.97;6151974;23;20055;-67
2023/07/22 09:18:39;;;;;;;;;;;;;;;30.64;27.35;99772.25;6155089;23;19908;-68
2023/07/22 09:21:05;;;;;;;;;;;;;;;30.81;27.98;99768.47;6153625;23;19931;-67
2023/07/22 09:23:37;;;;;;;;;;;;;;;30.92;27.22;99768.81;6101367;23;19913;-67
2023/07/22 09:26:13;;;;;;;;;;;;;;;30.98;27.00;99775.78;6154051;23;20003;-69
2023/07/22 09:28:52;;;;;;;;;;;;;;;31.09;26.68;99776.06;6126967;23;19909;-69
2023/07/22 09:31:18;;;;;;;;;;;;;;;31.19;26.11;99772.03;6152887;23;19914;-70
2023/07/22 09:33:44;;;;;;;;;;;;;;;31.13;25.89;99774.25;6127771;23;19935;-69
2023/07/22 09:36:12;;;;;;;;;;;;;;;31.17;26.25;99774.34;6151281;23;20303;-69
2023/07/22 09:38:38;;;;;;;;;;;;;;;31.16;25.37;99772.72;6128464;23;19932;-67
2023/07/22 09:41:03;;;;;;;;;;;;;;;31.23;25.42;99764.63;6153975;23;19913;-67
2023/07/22 09:43:29;;;;;;;;;;;;;;;31.31;26.44;99771.19;6153171;23;20314;-67
2023/07/22 09:45:54;;;;;;;;;;;;;;;31.37;25.26;99772.56;6153345;23;19913;-67
2023/07/22 09:48:21;;;;;;;;;;;;;;;31.38;25.37;99761.09;6125921;23;20242;-68
2023/07/22 09:50:55;;;;;;;;;;;;;;;31.57;25.37;99757.72;6102440;23;19915;-67
2023/07/22 09:53:21;;;;;;;;;;;;;;;31.82;24.39;99752.88;6100020;23;20013;-67
2023/07/22 09:55:47;;;;;;;;;;;;;;;32.02;25.02;99752.97;6152344;23;19913;-67
2023/07/22 09:58:14;;;;;;;;;;;;;;;32.09;24.29;99744.06;6127537;23;19912;-67
2023/07/22 10:00:42;;;;;;;;;;;;;;;32.18;24.78;99753.84;6152497;23;19920;-68
2023/07/22 10:03:10;;;;;;;;;;;;;;;32.32;23.36;99747.88;6154040;23;20316;-67
2023/07/22 10:05:38;;;;;;;;;;;;;;;32.30;23.10;99746.59;6152819;23;19917;-67
2023/07/22 10:08:05;;;;;;;;;;;;;;;32.36;24.68;99737.63;6154648;23;19955;-66
2023/07/22 10:10:31;;;;;;;;;;;;;;;32.38;23.64;99737.28;6154471;23;20228;-66
2023/07/22 10:12:57;;;;;;;;;;;;;;;32.47;23.19;99742.66;6153420;23;19909;-67
2023/07/22 10:15:24;;;;;;;;;;;;;;;32.60;23.00;99735.88;6126995;23;20223;-67
2023/07/22 10:17:50;;;;;;;;;;;;;;;32.81;24.09;99738.34;6152451;23;19969;-68
2023/07/22 10:20:15;;;;;;;;;;;;;;;32.92;24.60;99736.59;6153256;23;19913;-68
2023/07/22 10:22:44;;;;;;;;;;;;;;;33.04;24.08;99740.44;6153338;23;20216;-67
2023/07/22 10:25:17;;;;;;;;;;;;;;;32.92;24.96;99744.16;6150568;23;19913;-68
2023/07/22 10:27:43;;;;;;;;;;;;;;;32.74;23.99;99740.94;6153728;23;19909;-68
2023/07/22 10:30:14;;;;;;;;;;;;;;;32.57;24.34;99747.66;6152628;23;20289;-68
2023/07/22 10:32:41;;;;;;;;;;;;;;;32.47;24.41;99748.22;6152151;23;19909;-68
2023/07/22 10:35:23;;;;;;;;;;;;;;;32.48;24.63;99753.41;6152706;23;19947;-68
2023/07/22 10:37:49;;;;;;;;;;;;;;;32.55;26.19;99744.44;6125659;23;20329;-66
2023/07/22 10:40:30;;;;;;;;;;;;;;;32.50;24.71;99748.28;6152505;23;19913;-65
2023/07/22 10:42:59;;;;;;;;;;;;;;;32.34;23.72;99741.97;6145835;23;19909;-65
2023/07/22 10:45:27;;;;;;;;;;;;;;;32.17;23.71;99752.25;6152578;23;19940;-64
2023/07/22 10:48:12;;;;;;;;;;;;;;;31.97;24.64;99758.81;6151607;23;19909;-64
2023/07/22 10:50:51;;;;;;;;;;;;;;;31.64;24.29;99759.91;6153678;23;19959;-64
2023/07/22 10:53:19;;;;;;;;;;;;;;;31.20;23.29;99763.38;6152148;23;19917;-65
2023/07/22 10:56:05;;;;;;;;;;;;;;;30.73;23.93;99757.50;6151931;23;19908;-64
2023/07/22 10:58:31;;;;;;;;;;;;;;;30.06;24.79;99769.50;6155073;23;19909;-65
2023/07/22 11:01:23;;;;;;;;;;;;;;;29.69;25.83;99785.13;6156121;23;19952;-67
2023/07/22 11:04:03;;;;;;;;;;;;;;;29.46;26.09;99784.69;6156357;23;20309;-66
2023/07/22 11:06:29;;;;;;;;;;;;;;;29.23;27.01;99778.66;6156979;23;19919;-67
2023/07/22 11:08:55;;;;;;;;;;;;;;;29.04;27.45;99781.84;6157320;23;19991;-66
2023/07/22 11:11:20;;;;;;;;;;;;;;;28.70;27.14;99787.22;6157008;23;19909;-66
2023/07/22 11:13:46;;;;;;;;;;;;;;;28.44;28.51;99781.00;6156893;23;19928;-67
2023/07/22 11:16:11;;;;;;;;;;;;;;;28.11;28.29;99789.84;6157329;23;19943;-64
2023/07/22 11:18:37;;;;;;;;;;;;;;;27.93;29.14;99787.09;6157143;23;19915;-64
2023/07/22 11:21:07;;;;;;;;;;;;;;;27.72;30.29;99786.13;6157034;23;19912;-67
2023/07/22 11:23:33;;;;;;;;;;;;;;;27.49;30.68;99799.25;6156771;23;19924;-67
2023/07/22 11:25:58;;;;;;;;;;;;;;;27.27;30.22;99801.03;6155159;23;19920;-67
2023/07/22 11:28:23;;;;;;;;;;;;;;;27.11;31.45;99806.16;6155439;23;20250;-67
2023/07/22 11:30:49;;;;;;;;;;;;;;;27.16;30.37;99803.25;6155367;23;19970;-67
2023/07/22 11:33:14;;;;;;;;;;;;;;;27.18;29.89;99816.72;6155258;23;19909;-67
2023/07/22 11:35:42;;;;;;;;;;;;;;;27.11;30.14;99811.66;6128946;23;20345;-67
2023/07/22 11:38:07;;;;;;;;;;;;;;;27.02;31.01;99814.41;6154842;23;19909;-67
2023/07/22 11:40:33;;;;;;;;;;;;;;;27.06;30.75;99808.25;6155287;23;19935;-67
2023/07/22 11:42:59;;;;;;;;;;;;;;;27.00;30.47;99807.59;6156435;23;19908;-67
2023/07/22 11:45:24;;;;;;;;;;;;;;;27.04;30.62;99808.56;6156665;23;20409;-67
2023/07/22 11:47:50;;;;;;;;;;;;;;;27.02;31.29;99805.31;6155541;23;20318;-67
2023/07/22 11:50:15;;;;;;;;;;;;;;;26.98;32.09;99809.84;6156424;23;19909;-67
2023/07/22 11:52:41;;;;;;;;;;;;;;;27.21;31.89;99807.81;6156707;23;19960;-67
2023/07/22 11:55:06;;;;;;;;;;;;;;;27.26;32.82;99815.94;6156388;23;19915;-67
2023/07/22 11:57:31;;;;;;;;;;;;;;;27.46;32.96;99821.97;6156043;23;19948;-67
2023/07/22 11:59:57;;;;;;;;;;;;;;;27.67;32.19;99817.44;6156065;23;19908;-67
2023/07/22 12:02:25;;;;;;;;;;;;;;;27.93;31.67;99822.97;6155533;23;19916;-67
2023/07/22 12:04:52;;;;;;;;;;;;;;;28.12;31.88;99825.41;6155761;23;19909;-67
2023/07/22 12:07:24;;;;;;;;;;;;;;;28.32;32.46;99826.66;6156498;23;19913;-68
2023/07/22 12:09:51;;;;;;;;;;;;;;;28.38;31.54;99828.13;6156650;23;19908;-68
2023/07/22 12:12:17;;;;;;;;;;;;;;;28.38;31.74;99825.34;6156448;23;19919;-67
2023/07/22 12:14:42;;;;;;;;;;;;;;;28.46;31.71;99826.47;6156365;23;19944;-67
2023/07/22 12:17:10;;;;;;;;;;;;;;;28.45;31.88;99826.78;6156155;23;19920;-67
2023/07/22 12:19:35;;;;;;;;;;;;;;;28.46;32.27;99828.44;6155696;23;19928;-67
2023/07/22 12:22:01;;;;;;;;;;;;;;;28.45;31.87;99829.56;6156427;23;19916;-67
2023/07/22 12:24:27;;;;;;;;;;;;;;;28.42;32.00;99830.19;6156297;23;20270;-67
2023/07/22 12:26:53;;;;;;;;;;;;;;;28.37;32.01;99822.91;6156205;23;19917;-67
2023/07/22 12:29:18;;;;;;;;;;;;;;;28.41;31.77;99825.84;6156318;23;19909;-67
2023/07/22 12:31:43;;;;;;;;;;;;;;;28.44;31.88;99834.28;6156250;23;19912;-67
2023/07/22 12:34:09;;;;;;;;;;;;;;;28.52;33.03;99827.94;6156205;23;19944;-67
2023/07/22 12:36:34;;;;;;;;;;;;;;;28.66;33.10;99824.97;6156352;23;19959;-67
2023/07/22 12:38:59;;;;;;;;;;;;;;;28.73;32.39;99828.03;6156065;23;20032;-68
2023/07/22 12:41:24;;;;;;;;;;;;;;;28.86;32.76;99837.25;6156295;23;19920;-68
2023/07/22 12:43:52;;;;;;;;;;;;;;;28.92;31.84;99837.88;6156369;23;19931;-67